Time;durP1;ratioP1;P1;durP2;ratioP2;P2;SDS_P1;SDS_P2;PMS_P1;PMS_P2;Temp;Humidity;BMP_temperature;BMP_pressure;BME280_temperature;BME280_humidity;BME280_pressure;Samples;Min_cycle;Max_cycle;Signal;HPM_P1;HPM_P2
2022/07/18 00:00:34;;;;;;;2.78;0.90;;;;;;;22.16;30.20;100399.91;4499588;31;34011;-59
2022/07/18 00:03:01;;;;;;;2.95;1.30;;;;;;;22.12;29.80;100392.19;4499143;31;32911;-59
2022/07/18 00:05:29;;;;;;;3.70;1.40;;;;;;;22.18;29.93;100397.84;4498743;31;34343;-60
2022/07/18 00:07:56;;;;;;;4.03;1.27;;;;;;;21.96;30.31;100410.31;4495308;31;34744;-60
2022/07/18 00:10:24;;;;;;;2.90;1.33;;;;;;;21.89;30.52;100405.69;4494156;31;33277;-59
2022/07/18 00:12:52;;;;;;;2.37;1.10;;;;;;;22.09;30.20;100404.31;4498928;31;35242;-60
2022/07/18 00:15:19;;;;;;;3.25;1.05;;;;;;;22.00;30.57;100406.22;4498870;31;33897;-60
2022/07/18 00:17:47;;;;;;;3.03;1.10;;;;;;;22.06;30.57;100410.13;4494000;31;31799;-59
2022/07/18 00:20:15;;;;;;;2.72;0.85;;;;;;;22.19;30.50;100404.16;4497102;31;34973;-59
2022/07/18 00:22:43;;;;;;;2.37;1.08;;;;;;;22.00;30.79;100416.25;4491363;31;35027;-60
2022/07/18 00:25:10;;;;;;;1.60;0.85;;;;;;;22.03;30.53;100408.59;4497172;31;33757;-58
2022/07/18 00:27:38;;;;;;;3.25;1.05;;;;;;;22.10;30.20;100409.59;4500420;31;33698;-59
2022/07/18 00:30:08;;;;;;;2.95;1.10;;;;;;;22.07;30.34;100409.94;4499153;31;33559;-59
2022/07/18 00:32:35;;;;;;;3.15;1.00;;;;;;;22.06;30.69;100410.97;4488207;31;35636;-60
2022/07/18 00:35:03;;;;;;;2.92;1.05;;;;;;;22.15;30.23;100409.09;4491299;31;35156;-60
2022/07/18 00:37:31;;;;;;;7.43;1.42;;;;;;;22.21;30.03;100402.09;4500312;31;33570;-59
2022/07/18 00:39:58;;;;;;;2.03;1.20;;;;;;;22.26;30.01;100405.16;4498264;31;34098;-60
2022/07/18 00:42:26;;;;;;;4.85;1.08;;;;;;;22.30;29.90;100401.91;4497496;31;34525;-60
2022/07/18 00:44:54;;;;;;;2.67;1.20;;;;;;;22.39;29.89;100407.34;4494990;31;33239;-59
2022/07/18 00:47:22;;;;;;;3.25;1.23;;;;;;;22.30;29.43;100401.91;4501520;31;33368;-59
2022/07/18 00:49:50;;;;;;;3.25;1.35;;;;;;;22.19;29.86;100418.66;4498143;31;33858;-60
2022/07/18 00:52:17;;;;;;;2.42;1.12;;;;;;;22.37;29.40;100403.94;4499357;31;34009;-59
2022/07/18 00:54:45;;;;;;;3.40;1.02;;;;;;;22.41;29.71;100408.88;4499179;31;33808;-59
2022/07/18 00:57:13;;;;;;;2.30;1.17;;;;;;;22.45;29.61;100407.50;4498176;31;33409;-59
2022/07/18 01:02:27;;;;;;;1.73;0.88;;;;;;;22.58;29.36;100406.09;4491525;31;32801;-60
2022/07/18 01:04:54;;;;;;;3.70;1.35;;;;;;;22.49;29.44;100403.37;4499392;31;35432;-60
2022/07/18 01:07:22;;;;;;;2.87;1.20;;;;;;;22.61;29.39;100398.41;4499516;31;33326;-60
2022/07/18 01:09:50;;;;;;;2.67;1.12;;;;;;;22.59;29.59;100397.72;4500858;31;35067;-59
2022/07/18 01:12:18;;;;;;;2.50;1.20;;;;;;;22.47;29.48;100396.41;4495754;31;33009;-60
2022/07/18 01:14:46;;;;;;;2.70;1.30;;;;;;;22.29;30.10;100400.22;4499320;31;35041;-59
2022/07/18 01:17:15;;;;;;;2.03;1.00;;;;;;;22.31;30.09;100400.03;4492267;31;32469;-60
2022/07/18 01:19:43;;;;;;;2.83;1.20;;;;;;;22.18;30.44;100399.72;4493805;31;32831;-59
2022/07/18 01:22:12;;;;;;;4.32;1.30;;;;;;;22.13;30.29;100402.09;4497695;31;35184;-59
2022/07/18 01:24:41;;;;;;;3.67;1.42;;;;;;;21.82;31.08;100402.81;4497792;31;34822;-59
2022/07/18 01:27:13;;;;;;;3.53;1.27;;;;;;;21.76;31.15;100404.34;4500970;31;32394;-60
2022/07/18 01:29:42;;;;;;;4.45;1.17;;;;;;;21.65;31.41;100412.88;4498575;31;34954;-59
2022/07/18 01:32:10;;;;;;;4.28;1.52;;;;;;;21.65;31.50;100412.88;4499366;31;34886;-60
2022/07/18 01:34:38;;;;;;;5.82;1.20;;;;;;;21.44;31.87;100409.78;4500823;31;33150;-61
2022/07/18 01:37:06;;;;;;;7.50;1.33;;;;;;;21.14;31.88;100407.50;4500529;31;32280;-61
2022/07/18 01:39:35;;;;;;;2.65;1.17;;;;;;;21.16;32.04;100412.81;4501104;31;33793;-60
2022/07/18 01:42:05;;;;;;;1.80;0.70;;;;;;;21.25;31.98;100413.66;4496830;31;32728;-61
2022/07/18 01:44:33;;;;;;;5.55;0.98;;;;;;;21.04;31.88;100414.97;4496686;31;33196;-60
2022/07/18 01:47:03;;;;;;;2.22;1.02;;;;;;;21.01;31.78;100418.03;4497660;31;34542;-61
2022/07/18 01:49:31;;;;;;;4.03;1.23;;;;;;;21.12;31.32;100406.84;4499584;31;33913;-60
2022/07/18 01:51:59;;;;;;;1.62;0.90;;;;;;;21.21;31.04;100401.41;4496653;31;35124;-60
2022/07/18 01:54:29;;;;;;;3.33;1.25;;;;;;;21.26;31.03;100408.06;4498950;31;34780;-60
2022/07/18 01:56:57;;;;;;;1.95;1.08;;;;;;;21.27;31.09;100411.62;4499084;31;33548;-61
2022/07/18 01:59:25;;;;;;;2.80;1.15;;;;;;;21.37;30.89;100410.47;4501103;31;33743;-60
2022/07/18 02:01:53;;;;;;;1.52;0.75;;;;;;;21.31;30.90;100410.25;4497339;31;32762;-60
2022/07/18 02:04:59;;;;;;;5.07;1.02;;;;;;;21.33;30.92;100406.34;4498848;31;35203;-61
2022/07/18 02:07:09;;;;;;;3.55;1.33;;;;;;;21.44;30.49;100401.62;4498233;31;34473;-60
2022/07/18 02:09:36;;;;;;;1.48;0.90;;;;;;;21.62;30.15;100408.62;4498076;31;32680;-60
2022/07/18 02:12:04;;;;;;;1.58;0.90;;;;;;;21.65;29.84;100414.75;4498154;31;34047;-60
2022/07/18 02:14:32;;;;;;;2.95;0.93;;;;;;;21.68;29.84;100409.81;4500886;31;34975;-60
2022/07/18 02:17:00;;;;;;;2.78;1.05;;;;;;;21.51;29.93;100411.69;4497401;31;34631;-60
2022/07/18 02:19:28;;;;;;;1.95;0.95;;;;;;;21.59;29.69;100419.00;4496285;31;34135;-60
2022/07/18 02:21:56;;;;;;;3.70;1.20;;;;;;;21.53;30.11;100417.81;4498594;31;32710;-61
2022/07/18 02:24:24;;;;;;;3.08;1.20;;;;;;;21.68;29.91;100422.59;4501013;31;35191;-60
2022/07/18 02:26:51;;;;;;;3.03;1.17;;;;;;;21.69;30.09;100422.41;4496553;31;33505;-60
2022/07/18 02:29:20;;;;;;;2.62;1.00;;;;;;;21.53;30.18;100409.63;4497730;31;33663;-61
2022/07/18 02:31:47;;;;;;;4.30;1.10;;;;;;;21.52;30.51;100424.28;4499256;31;34078;-60
2022/07/18 02:34:15;;;;;;;3.33;1.20;;;;;;;21.50;30.40;100420.00;4499507;31;34793;-60
2022/07/18 02:36:45;;;;;;;3.08;1.20;;;;;;;21.66;30.27;100420.03;4496753;31;33431;-60
2022/07/18 02:39:12;;;;;;;2.33;0.98;;;;;;;21.63;30.43;100409.47;4496063;31;34964;-61
2022/07/18 02:41:40;;;;;;;2.70;1.15;;;;;;;21.64;30.46;100411.19;4496219;31;35093;-60
2022/07/18 02:44:07;;;;;;;2.85;0.93;;;;;;;21.38;30.57;100389.56;4497830;31;35134;-61
2022/07/18 02:46:35;;;;;;;2.85;1.20;;;;;;;21.44;30.58;100412.50;4499563;31;32226;-60
2022/07/18 02:49:03;;;;;;;3.00;1.17;;;;;;;21.39;30.85;100410.31;4496409;31;34846;-60
2022/07/18 02:51:31;;;;;;;3.58;1.15;;;;;;;21.39;30.70;100413.03;4496109;31;32674;-60
2022/07/18 02:53:58;;;;;;;3.03;1.27;;;;;;;21.37;30.83;100420.50;4496550;31;32869;-60
2022/07/18 02:56:25;;;;;;;2.08;0.90;;;;;;;21.32;31.03;100420.16;4495127;31;33614;-60
2022/07/18 02:58:53;;;;;;;2.55;0.98;;;;;;;21.21;31.23;100420.44;4499538;31;33800;-61
2022/07/18 03:01:21;;;;;;;6.97;1.45;;;;;;;21.22;31.13;100412.12;4498747;31;33726;-60
2022/07/18 03:03:48;;;;;;;3.60;1.15;;;;;;;21.26;31.33;100418.94;4484970;32;34908;-60
2022/07/18 03:06:16;;;;;;;2.65;1.05;;;;;;;21.14;31.22;100412.94;4484966;32;33299;-61
2022/07/18 03:08:44;;;;;;;3.12;1.15;;;;;;;21.14;31.22;100425.72;4484795;32;33625;-61
2022/07/18 03:11:11;;;;;;;2.37;1.20;;;;;;;21.09;31.33;100418.06;4495363;31;33785;-59
2022/07/18 03:13:39;;;;;;;3.20;1.17;;;;;;;21.04;31.55;100422.28;4497134;31;34232;-61
2022/07/18 03:16:07;;;;;;;2.05;0.90;;;;;;;21.13;31.34;100422.16;4499412;31;33767;-60
2022/07/18 03:18:35;;;;;;;2.70;1.20;;;;;;;21.14;31.32;100412.94;4499946;31;32348;-59
2022/07/18 03:21:02;;;;;;;2.35;1.15;;;;;;;21.08;31.76;100416.34;4499501;31;34214;-60
2022/07/18 03:23:30;;;;;;;2.65;1.00;;;;;;;21.09;32.18;100415.34;4500579;31;34023;-59
2022/07/18 03:25:57;;;;;;;4.15;1.05;;;;;;;21.09;32.13;100417.19;4498863;31;33445;-58
2022/07/18 03:28:25;;;;;;;2.50;1.08;;;;;;;20.96;32.52;100414.09;4500205;31;33908;-60
2022/07/18 03:30:53;;;;;;;2.87;1.00;;;;;;;20.93;32.55;100413.44;4499398;31;35247;-60
2022/07/18 03:33:20;;;;;;;7.70;1.27;;;;;;;20.90;32.37;100418.34;4496983;31;35009;-59
2022/07/18 03:35:48;;;;;;;14.23;1.70;;;;;;;21.08;32.00;100420.94;4495898;31;32434;-58
2022/07/18 03:38:16;;;;;;;3.80;1.40;;;;;;;20.98;32.14;100421.06;4492712;31;34226;-60
2022/07/18 03:40:43;;;;;;;2.87;1.30;;;;;;;20.87;32.39;100418.69;4496347;31;33930;-59
2022/07/18 03:43:12;;;;;;;3.37;1.48;;;;;;;21.01;32.09;100420.75;4498590;31;33974;-59
2022/07/18 03:45:39;;;;;;;3.85;1.50;;;;;;;21.12;31.74;100422.28;4500002;31;33509;-60
2022/07/18 03:48:13;;;;;;;7.03;1.17;;;;;;;21.10;31.93;100418.91;4496985;31;33743;-60
2022/07/18 03:50:40;;;;;;;4.10;1.50;;;;;;;21.13;31.99;100424.88;4498887;31;33656;-59
2022/07/18 03:53:08;;;;;;;2.53;1.27;;;;;;;21.16;32.00;100429.12;4499961;31;34959;-60
2022/07/18 03:55:36;;;;;;;3.22;1.45;;;;;;;21.07;32.06;100428.25;4497859;31;33547;-60
2022/07/18 03:58:03;;;;;;;7.57;1.62;;;;;;;21.07;32.64;100430.97;4493042;31;33595;-61
2022/07/18 04:00:31;;;;;;;6.18;1.30;;;;;;;21.20;32.14;100443.25;4496042;31;33853;-61
2022/07/18 04:02:59;;;;;;;4.93;1.70;;;;;;;21.19;32.25;100431.53;4498887;31;34248;-61
2022/07/18 04:05:31;;;;;;;9.40;1.67;;;;;;;21.21;32.39;100439.50;4482655;31;34643;-61
2022/07/18 04:07:59;;;;;;;3.80;1.42;;;;;;;21.24;32.35;100447.34;4490656;31;33493;-60
2022/07/18 04:10:27;;;;;;;6.35;1.55;;;;;;;21.37;31.95;100447.75;4488557;31;34089;-61
2022/07/18 04:12:55;;;;;;;3.30;1.45;;;;;;;21.35;32.20;100438.91;4498630;31;33805;-61
2022/07/18 04:15:25;;;;;;;2.95;1.27;;;;;;;21.32;32.20;100445.50;4496923;31;33460;-60
2022/07/18 04:17:53;;;;;;;2.78;1.02;;;;;;;21.45;32.28;100449.66;4496258;31;32731;-60
2022/07/18 04:20:21;;;;;;;4.15;1.33;;;;;;;21.61;32.08;100452.38;4497829;31;33902;-59
2022/07/18 04:22:57;;;;;;;4.35;1.50;;;;;;;21.71;31.99;100449.50;4496817;31;33962;-63
2022/07/18 04:25:27;;;;;;;3.80;1.50;;;;;;;21.80;31.84;100449.31;4494464;31;35063;-61
2022/07/18 04:27:56;;;;;;;3.40;1.60;;;;;;;21.77;31.77;100457.00;4496281;31;32409;-60
2022/07/18 04:30:25;;;;;;;3.65;1.75;;;;;;;21.95;31.53;100452.19;4492215;31;32769;-60
2022/07/18 04:32:53;;;;;;;2.87;1.50;;;;;;;22.11;31.79;100456.78;4495486;31;34037;-60
2022/07/18 04:35:22;;;;;;;4.07;1.30;;;;;;;22.23;31.77;100455.44;4494448;31;32305;-60
2022/07/18 04:37:51;;;;;;;5.45;1.83;;;;;;;22.40;31.79;100453.53;4497514;31;32186;-61
2022/07/18 04:40:19;;;;;;;4.05;1.70;;;;;;;22.46;31.80;100457.44;4493584;31;35210;-61
2022/07/18 04:42:47;;;;;;;3.65;1.60;;;;;;;22.64;31.42;100449.03;4498920;31;34116;-61
2022/07/18 04:45:15;;;;;;;9.43;1.50;;;;;;;22.72;31.18;100451.72;4489361;31;32034;-62
2022/07/18 04:47:43;;;;;;;4.90;1.55;;;;;;;22.81;31.80;100455.28;4483376;32;34135;-61
2022/07/18 04:50:11;;;;;;;2.97;1.08;;;;;;;22.99;32.13;100455.91;4496433;31;34148;-61
2022/07/18 04:52:42;;;;;;;3.90;1.70;;;;;;;23.13;31.91;100449.69;4484263;31;34102;-60
2022/07/18 04:55:10;;;;;;;4.28;1.70;;;;;;;23.37;31.70;100454.16;4490467;31;33624;-59
2022/07/18 04:57:38;;;;;;;3.25;1.60;;;;;;;23.61;31.39;100450.41;4495196;31;33850;-59
2022/07/18 05:00:11;;;;;;;2.25;1.20;;;;;;;23.71;31.55;100453.75;4491015;31;34125;-60
2022/07/18 05:02:41;;;;;;;4.53;1.87;;;;;;;23.91;30.95;100448.62;4496134;31;35234;-60
2022/07/18 05:05:10;;;;;;;4.18;1.40;;;;;;;23.90;30.28;100443.38;4490220;31;33695;-63
2022/07/18 05:07:40;;;;;;;5.03;1.52;;;;;;;24.07;30.17;100436.69;4496492;31;33639;-63
2022/07/18 05:10:09;;;;;;;4.07;1.60;;;;;;;24.13;29.75;100446.06;4499334;31;35385;-61
2022/07/18 05:12:38;;;;;;;3.35;1.85;;;;;;;24.20;30.03;100444.25;4500752;31;33842;-61
2022/07/18 05:15:08;;;;;;;3.97;1.77;;;;;;;24.14;29.54;100447.75;4495918;31;34358;-63
2022/07/18 05:17:36;;;;;;;5.37;1.90;;;;;;;24.12;29.46;100447.09;4499614;31;35036;-62
2022/07/18 05:20:05;;;;;;;4.22;1.67;;;;;;;24.02;29.77;100449.25;4501022;31;32715;-62
2022/07/18 05:22:33;;;;;;;5.50;2.12;;;;;;;24.28;29.91;100451.56;4500014;31;34259;-62
2022/07/18 05:25:02;;;;;;;4.87;1.75;;;;;;;24.06;30.86;100456.03;4495183;31;33531;-62
2022/07/18 05:27:30;;;;;;;4.00;1.70;;;;;;;24.04;29.83;100455.38;4494583;31;34233;-62
2022/07/18 05:29:58;;;;;;;4.22;1.62;;;;;;;24.31;30.19;100449.28;4494235;31;35016;-62
2022/07/18 05:32:27;;;;;;;3.72;1.17;;;;;;;24.34;30.14;100462.59;4492755;31;33981;-61
2022/07/18 05:34:54;;;;;;;2.67;1.20;;;;;;;24.63;30.48;100460.94;4498745;31;34407;-61
2022/07/18 05:37:22;;;;;;;3.90;1.20;;;;;;;24.52;29.38;100462.25;4497261;31;33625;-62
2022/07/18 05:39:51;;;;;;;4.15;1.48;;;;;;;24.64;29.25;100457.16;4494680;31;34626;-61
2022/07/18 05:42:19;;;;;;;3.78;1.58;;;;;;;24.34;28.06;100453.53;4496029;31;34144;-62
2022/07/18 05:45:07;;;;;;;3.35;1.50;;;;;;;23.95;29.42;100454.63;4498601;31;32044;-61
2022/07/18 05:47:35;;;;;;;7.65;1.30;;;;;;;24.42;28.13;100449.91;4494113;31;32730;-62
2022/07/18 05:50:04;;;;;;;4.18;1.58;;;;;;;23.78;29.23;100450.31;4495460;31;33722;-61
2022/07/18 05:52:32;;;;;;;4.18;1.35;;;;;;;23.61;29.63;100447.66;4497691;31;33797;-61
2022/07/18 05:55:00;;;;;;;4.62;1.30;;;;;;;23.81;28.88;100445.31;4496899;31;33341;-61
2022/07/18 05:57:28;;;;;;;4.47;1.50;;;;;;;22.95;30.20;100447.25;4495550;31;34052;-62
2022/07/18 05:59:55;;;;;;;4.75;1.70;;;;;;;23.56;29.31;100438.31;4491146;31;32503;-61
2022/07/18 06:02:23;;;;;;;4.07;1.60;;;;;;;23.59;29.57;100444.25;4496627;31;33909;-62
2022/07/18 06:04:51;;;;;;;3.30;1.30;;;;;;;23.85;29.17;100443.06;4497992;31;33563;-62
2022/07/18 06:07:38;;;;;;;3.70;1.70;;;;;;;23.36;29.74;100440.69;4491834;31;32594;-58
2022/07/18 06:10:07;;;;;;;4.30;1.75;;;;;;;23.73;29.57;100447.28;4491245;31;33900;-59
2022/07/18 06:12:34;;;;;;;3.25;1.42;;;;;;;23.31;29.60;100449.44;4496472;31;34576;-59
2022/07/18 06:15:02;;;;;;;3.72;1.45;;;;;;;23.72;29.71;100440.94;4492407;31;33810;-59
2022/07/18 06:17:30;;;;;;;3.45;1.30;;;;;;;24.27;29.21;100445.25;4493722;31;34010;-59
2022/07/18 06:19:58;;;;;;;2.72;1.35;;;;;;;24.09;29.15;100440.09;4495783;31;35063;-59
2022/07/18 06:22:26;;;;;;;3.78;1.60;;;;;;;23.73;29.07;100442.66;4489313;31;35094;-58
2022/07/18 06:24:54;;;;;;;5.12;1.65;;;;;;;24.24;28.13;100442.00;4499728;31;34312;-58
2022/07/18 06:27:21;;;;;;;4.10;1.45;;;;;;;23.40;29.87;100448.34;4492140;31;35012;-59
2022/07/18 06:29:49;;;;;;;3.22;1.37;;;;;;;23.52;29.89;100451.47;4495154;31;34113;-59
2022/07/18 06:32:17;;;;;;;2.65;1.40;;;;;;;24.21;28.80;100445.16;4488837;31;33005;-59
2022/07/18 06:34:44;;;;;;;3.47;1.58;;;;;;;24.21;28.73;100451.47;4494762;31;32137;-59
2022/07/18 06:37:12;;;;;;;4.03;1.40;;;;;;;24.47;28.28;100439.25;4495622;31;32632;-59
2022/07/18 06:39:40;;;;;;;3.92;1.65;;;;;;;24.25;28.98;100441.84;4490538;31;34591;-59
2022/07/18 06:42:08;;;;;;;4.30;1.83;;;;;;;23.44;29.49;100444.22;4495776;31;34217;-60
2022/07/18 06:44:35;;;;;;;3.72;1.60;;;;;;;23.85;29.22;100438.47;4491072;31;33561;-59
2022/07/18 06:47:03;;;;;;;3.58;1.40;;;;;;;24.09;29.30;100447.47;4492578;31;33680;-59
2022/07/18 06:49:31;;;;;;;2.28;1.00;;;;;;;24.33;29.32;100438.16;4488127;31;34132;-60
2022/07/18 06:51:58;;;;;;;3.28;1.50;;;;;;;24.08;29.25;100437.56;4483281;31;34177;-60
2022/07/18 06:54:33;;;;;;;5.87;1.73;;;;;;;24.02;29.61;100438.31;4496611;31;33473;-59
2022/07/18 06:57:03;;;;;;;4.45;1.20;;;;;;;24.09;29.01;100442.84;4496303;31;32590;-59
2022/07/18 06:59:30;;;;;;;5.78;1.40;;;;;;;24.06;29.02;100442.38;4492394;31;32986;-59
2022/07/18 07:01:58;;;;;;;6.18;1.77;;;;;;;24.25;28.90;100441.00;4492549;31;35204;-60
2022/07/18 07:04:26;;;;;;;7.20;1.45;;;;;;;24.25;29.45;100444.56;4492011;31;33328;-59
2022/07/18 07:06:53;;;;;;;4.43;1.40;;;;;;;24.43;28.92;100441.53;4483826;31;33727;-59
2022/07/18 07:09:21;;;;;;;4.85;1.40;;;;;;;24.40;29.10;100441.84;4486325;31;32909;-59
2022/07/18 07:11:49;;;;;;;3.45;1.52;;;;;;;24.25;29.23;100435.53;4487333;31;33547;-59
2022/07/18 07:14:16;;;;;;;3.97;1.30;;;;;;;24.78;28.86;100436.28;4475722;31;35228;-59
2022/07/18 07:16:44;;;;;;;5.12;1.70;;;;;;;24.95;29.12;100440.53;4484822;31;33874;-59
2022/07/18 07:19:12;;;;;;;6.05;1.83;;;;;;;24.84;29.21;100435.53;4482747;31;33619;-59
2022/07/18 07:21:39;;;;;;;3.55;1.30;;;;;;;25.13;28.49;100436.53;4486618;31;34076;-59
2022/07/18 07:24:07;;;;;;;5.03;1.30;;;;;;;25.15;28.16;100432.59;4497351;31;33353;-59
2022/07/18 07:26:35;;;;;;;3.10;1.50;;;;;;;25.04;28.30;100431.16;4488363;31;34659;-61
2022/07/18 07:29:02;;;;;;;3.87;1.37;;;;;;;25.40;28.12;100434.97;4485907;31;33632;-60
2022/07/18 07:31:30;;;;;;;4.55;1.87;;;;;;;25.41;27.95;100425.69;4475904;31;35632;-60
2022/07/18 07:33:58;;;;;;;4.57;1.33;;;;;;;25.59;28.03;100428.84;4485172;31;33846;-60
2022/07/18 07:36:33;;;;;;;7.18;1.52;;;;;;;25.60;27.51;100425.03;4487167;31;33749;-59
2022/07/18 07:39:01;;;;;;;3.25;1.60;;;;;;;24.90;28.22;100428.44;4485216;31;35201;-60
2022/07/18 07:41:28;;;;;;;4.22;1.52;;;;;;;25.14;28.49;100430.91;4483266;31;33789;-59
2022/07/18 07:43:56;;;;;;;7.32;1.70;;;;;;;25.31;27.74;100429.59;4487516;31;33327;-60
2022/07/18 07:46:24;;;;;;;3.15;1.58;;;;;;;25.64;28.22;100426.34;4492213;31;35088;-60
2022/07/18 07:48:51;;;;;;;4.60;1.75;;;;;;;25.57;27.01;100419.97;4484816;31;32037;-61
2022/07/18 07:51:19;;;;;;;6.32;1.83;;;;;;;25.24;28.21;100428.69;4487269;31;33499;-60
2022/07/18 07:53:52;;;;;;;5.55;1.85;;;;;;;25.20;28.30;100423.78;4492307;31;34854;-60
2022/07/18 07:56:20;;;;;;;4.10;1.50;;;;;;;25.53;27.30;100424.13;4484818;31;32531;-59
2022/07/18 07:58:47;;;;;;;6.45;1.60;;;;;;;25.66;28.27;100424.25;4485827;31;34007;-60
2022/07/18 08:01:17;;;;;;;5.53;1.50;;;;;;;25.66;27.64;100424.25;4484105;31;33953;-60
2022/07/18 08:03:48;;;;;;;3.95;1.42;;;;;;;26.26;25.88;100430.28;4484634;31;33208;-59
2022/07/18 08:06:16;;;;;;;3.33;1.15;;;;;;;26.20;25.96;100431.91;4484832;31;35098;-61
2022/07/18 08:08:43;;;;;;;5.10;1.70;;;;;;;25.77;26.85;100423.72;4487640;31;34017;-60
2022/07/18 08:11:11;;;;;;;3.40;1.27;;;;;;;25.69;27.91;100432.09;4490178;31;34178;-59
2022/07/18 08:13:39;;;;;;;2.95;1.42;;;;;;;26.18;26.87;100423.03;4489005;31;32584;-60
2022/07/18 08:16:07;;;;;;;3.25;1.40;;;;;;;26.21;24.77;100424.53;4490719;31;35381;-59
2022/07/18 08:18:35;;;;;;;3.92;1.30;;;;;;;25.83;25.87;100424.00;4496517;31;35002;-60
2022/07/18 08:21:02;;;;;;;5.15;1.83;;;;;;;26.50;25.81;100419.91;4484602;31;34016;-59
2022/07/18 08:23:30;;;;;;;8.43;1.60;;;;;;;26.76;24.45;100420.03;4492656;31;32656;-60
2022/07/18 08:25:58;;;;;;;5.55;1.83;;;;;;;26.04;24.98;100428.62;4495942;31;32810;-60
2022/07/18 08:28:25;;;;;;;4.43;1.48;;;;;;;26.29;25.11;100427.09;4486731;31;35479;-60
2022/07/18 08:30:53;;;;;;;3.58;1.20;;;;;;;26.70;24.16;100427.16;4479515;31;34750;-60
2022/07/18 08:33:20;;;;;;;3.15;1.27;;;;;;;26.51;24.99;100422.41;4483911;31;33248;-59
2022/07/18 08:35:50;;;;;;;4.12;1.20;;;;;;;27.02;24.45;100422.03;4482931;31;33832;-59
2022/07/18 08:38:18;;;;;;;4.82;1.40;;;;;;;26.32;24.23;100423.97;4484587;31;32635;-59
2022/07/18 08:40:47;;;;;;;4.50;1.50;;;;;;;26.55;23.87;100429.22;4485885;31;33792;-59
2022/07/18 08:43:16;;;;;;;7.00;1.20;;;;;;;26.82;24.00;100419.22;4486647;31;31860;-59
2022/07/18 08:45:51;;;;;;;5.22;1.60;;;;;;;26.91;24.77;100417.16;4487855;31;33023;-59
2022/07/18 08:48:19;;;;;;;3.35;1.40;;;;;;;26.70;24.82;100416.19;4478895;31;35405;-60
2022/07/18 08:50:48;;;;;;;2.58;1.17;;;;;;;27.12;24.11;100427.13;4486010;31;34403;-59
2022/07/18 08:53:17;;;;;;;5.03;1.48;;;;;;;26.10;24.16;100420.44;4483304;31;32182;-59
2022/07/18 08:55:45;;;;;;;5.70;1.50;;;;;;;26.88;23.95;100425.78;4483826;31;35191;-59
2022/07/18 08:58:14;;;;;;;4.18;1.40;;;;;;;27.01;23.55;100422.25;4487150;31;34598;-60
2022/07/18 09:01:02;;;;;;;6.28;1.62;;;;;;;27.00;23.75;100424.16;4493561;31;33939;-59
2022/07/18 09:03:30;;;;;;;10.35;2.65;;;;;;;27.22;23.29;100424.03;4488718;31;34984;-59
2022/07/18 09:06:11;;;;;;;3.72;1.87;;;;;;;27.54;22.62;100423.25;4492514;31;32651;-60
2022/07/18 09:08:40;;;;;;;2.65;1.10;;;;;;;27.08;22.34;100423.97;4488903;31;34320;-59
2022/07/18 09:11:10;;;;;;;4.55;1.40;;;;;;;27.35;22.48;100427.69;4476421;31;34006;-60
2022/07/18 09:13:58;;;;;;;2.62;1.20;;;;;;;27.02;22.81;100423.94;4488034;31;33413;-59
2022/07/18 09:16:26;;;;;;;2.33;1.05;;;;;;;27.29;23.25;100424.91;4493344;31;34900;-59
2022/07/18 09:18:54;;;;;;;3.95;1.55;;;;;;;27.32;22.78;100416.22;4483773;31;32576;-59
2022/07/18 09:21:23;;;;;;;4.25;1.62;;;;;;;27.50;22.52;100410.97;4496201;31;34079;-59
2022/07/18 09:23:52;;;;;;;4.47;1.30;;;;;;;27.68;22.36;100410.37;4483775;31;33213;-59
2022/07/18 09:26:35;;;;;;;3.40;1.30;;;;;;;28.25;22.47;100410.78;4471141;31;32706;-60
2022/07/18 09:29:04;;;;;;;5.85;1.37;;;;;;;28.54;21.66;100418.62;4490612;31;37339;-60
2022/07/18 09:31:52;;;;;;;4.55;1.23;;;;;;;28.25;22.28;100417.16;4487428;31;34249;-61
2022/07/18 09:34:37;;;;;;;5.62;1.87;;;;;;;28.45;21.89;100419.06;4483093;31;32070;-61
2022/07/18 09:37:10;;;;;;;3.42;1.40;;;;;;;28.90;22.43;100411.69;4483860;31;33700;-60
2022/07/18 09:39:39;;;;;;;4.22;1.40;;;;;;;29.13;21.47;100410.34;4489005;31;33540;-61
2022/07/18 09:42:15;;;;;;;7.00;1.25;;;;;;;29.18;21.89;100414.16;4485290;31;34919;-60
2022/07/18 09:44:57;;;;;;;3.45;1.25;;;;;;;29.36;20.95;100410.63;4483554;31;33381;-59
2022/07/18 09:47:24;;;;;;;3.53;1.20;;;;;;;29.19;20.53;100410.31;4484551;31;33491;-61
2022/07/18 09:49:54;;;;;;;3.28;1.35;;;;;;;29.03;20.92;100410.81;4481839;31;33671;-60
2022/07/18 09:52:22;;;;;;;2.97;1.12;;;;;;;29.30;19.83;100410.66;4485025;31;32707;-61
2022/07/18 09:54:49;;;;;;;4.15;1.20;;;;;;;29.47;20.16;100404.41;4487096;31;32296;-60
2022/07/18 09:57:26;;;;;;;4.43;1.10;;;;;;;29.83;20.32;100402.06;4485297;31;35085;-59
2022/07/18 09:59:54;;;;;;;3.17;1.20;;;;;;;30.00;20.42;100403.16;4489268;31;32538;-59
2022/07/18 10:02:22;;;;;;;3.25;1.35;;;;;;;30.10;19.24;100402.66;4492644;31;34162;-60
2022/07/18 10:04:50;;;;;;;4.18;1.50;;;;;;;30.50;20.00;100402.25;4483319;31;32358;-60
2022/07/18 10:07:18;;;;;;;2.95;1.33;;;;;;;30.22;19.48;100397.28;4486053;31;32833;-60
2022/07/18 10:09:46;;;;;;;5.70;1.50;;;;;;;31.08;19.00;100393.50;4480003;31;35131;-61
2022/07/18 10:12:15;;;;;;;2.60;1.02;;;;;;;30.61;18.47;100391.28;4488634;31;34404;-61
2022/07/18 10:14:44;;;;;;;4.43;1.30;;;;;;;30.84;18.54;100385.09;4498852;31;34668;-60
2022/07/18 10:17:11;;;;;;;3.83;1.27;;;;;;;31.06;18.32;100381.84;4492682;31;33245;-60
2022/07/18 10:19:40;;;;;;;8.90;1.60;;;;;;;30.88;19.05;100377.16;4488120;31;33762;-59
2022/07/18 10:22:07;;;;;;;2.65;1.27;;;;;;;30.61;19.54;100380.25;4492984;31;34067;-60
2022/07/18 10:24:44;;;;;;;5.78;1.67;;;;;;;30.54;19.65;100385.00;4484028;31;31907;-61
2022/07/18 10:27:15;;;;;;;4.22;1.65;;;;;;;30.83;18.59;100372.34;4487012;31;34424;-59
2022/07/18 10:30:09;;;;;;;2.65;1.10;;;;;;;30.84;18.53;100379.56;4494761;31;34058;-61
2022/07/18 10:32:37;;;;;;;3.15;1.40;;;;;;;31.27;17.86;100377.72;4485415;31;33424;-59
2022/07/18 10:35:06;;;;;;;6.10;1.40;;;;;;;31.45;18.25;100368.53;4488347;31;32352;-61
2022/07/18 10:37:34;;;;;;;3.72;1.30;;;;;;;31.52;17.49;100363.72;4494152;31;32521;-61
2022/07/18 10:40:26;;;;;;;4.68;1.30;;;;;;;31.01;17.31;100362.31;4490172;31;32775;-60
2022/07/18 10:43:29;;;;;;;5.18;1.48;;;;;;;31.14;17.38;100364.94;4485073;31;32241;-59
2022/07/18 10:45:58;;;;;;;5.90;1.37;;;;;;;30.78;17.51;100365.84;4477896;31;32389;-61
2022/07/18 10:48:32;;;;;;;4.32;1.33;;;;;;;30.85;17.33;100358.28;4488930;31;32018;-60
2022/07/18 10:51:07;;;;;;;2.05;1.30;;;;;;;30.97;17.48;100355.59;4485238;31;33487;-59
2022/07/18 10:53:53;;;;;;;;;;;;;;;30.97;16.62;100350.06;4489757;31;32894;-60
2022/07/18 10:56:35;;;;;;;3.47;1.20;;;;;;;31.51;17.06;100345.44;4484833;31;33728;-61
2022/07/18 10:59:20;;;;;;;6.70;1.62;;;;;;;31.57;17.15;100347.25;4485155;31;32781;-59
2022/07/18 11:01:49;;;;;;;;;;;;;;;31.64;17.14;100342.44;4492630;31;35332;-59
2022/07/18 11:04:26;;;;;;;2.55;1.17;;;;;;;31.07;17.68;100342.88;4487474;31;33880;-60
2022/07/18 11:07:10;;;;;;;3.03;1.30;;;;;;;31.91;16.40;100334.56;4489266;31;32313;-60
2022/07/18 11:09:46;;;;;;;3.60;1.12;;;;;;;31.98;17.46;100328.91;4487262;31;32699;-61
2022/07/18 11:12:28;;;;;;;5.10;1.62;;;;;;;32.50;16.43;100337.28;4495745;31;35228;-60
2022/07/18 11:15:13;;;;;;;4.62;1.42;;;;;;;32.52;15.80;100324.03;4489475;31;34314;-61
2022/07/18 11:18:00;;;;;;;3.50;1.40;;;;;;;31.94;16.12;100311.94;4485504;31;33449;-60
2022/07/18 11:20:35;;;;;;;4.10;1.40;;;;;;;32.51;16.33;100314.03;4489209;31;35773;-60
2022/07/18 11:23:13;;;;;;;3.37;1.37;;;;;;;32.23;16.33;100309.22;4488112;31;32693;-60
2022/07/18 11:25:40;;;;;;;2.60;1.10;;;;;;;32.44;16.00;100305.84;4486476;31;33868;-60
2022/07/18 11:28:27;;;;;;;3.95;1.45;;;;;;;32.50;15.67;100306.81;4489238;31;32537;-60
2022/07/18 11:31:03;;;;;;;3.72;1.33;;;;;;;32.46;15.30;100298.16;4487447;31;34954;-60
2022/07/18 11:33:34;;;;;;;3.37;1.20;;;;;;;32.63;15.50;100298.22;4486553;31;33913;-60
2022/07/18 11:36:08;;;;;;;2.47;1.20;;;;;;;32.33;15.78;100292.00;4486112;31;32689;-60
2022/07/18 11:38:56;;;;;;;4.75;1.27;;;;;;;32.23;15.51;100292.62;4489332;31;32961;-60
2022/07/18 11:41:24;;;;;;;3.75;1.50;;;;;;;31.97;15.23;100297.59;4492910;31;32117;-60